Time;durP1;ratioP1;P1;durP2;ratioP2;P2;SDS_P1;SDS_P2;PMS_P1;PMS_P2;Temp;Humidity;BMP_temperature;BMP_pressure;BME280_temperature;BME280_humidity;BME280_pressure;Samples;Min_cycle;Max_cycle;Signal;HPM_P1;HPM_P2
2021/01/08 00:00:10;;;;;;;78.47;38.17;;;77.60;2227.20;;;;;;4975922;28;20030;-61
2021/01/08 00:02:36;;;;;;;74.93;37.40;;;77.70;2227.20;;;;;;4975882;28;20046;-61
2021/01/08 00:05:03;;;;;;;69.35;34.97;;;77.70;2227.20;;;;;;4976093;28;20380;-62
2021/01/08 00:07:33;;;;;;;61.40;33.30;;;77.70;2227.20;;;;;;4975911;28;20027;-64
2021/01/08 00:09:58;;;;;;;67.05;34.35;;;77.70;2227.20;;;;;;4975828;28;20052;-63
2021/01/08 00:12:24;;;;;;;62.38;32.70;;;77.70;2227.20;;;;;;4975437;28;20034;-65
2021/01/08 00:14:50;;;;;;;70.43;35.30;;;102.40;2227.20;;;;;;4975405;28;20085;-62
2021/01/08 00:17:16;;;;;;;60.75;31.08;;;77.70;2227.20;;;;;;4975335;28;20395;-63
2021/01/08 00:19:41;;;;;;;52.55;27.98;;;77.70;2227.20;;;;;;4975176;28;20031;-64
2021/01/08 00:22:09;;;;;;;50.95;26.95;;;77.50;2227.20;;;;;;4975760;28;20043;-62
2021/01/08 00:24:35;;;;;;;54.60;27.55;;;77.60;2227.20;;;;;;4975546;28;20030;-64
2021/01/08 00:27:03;;;;;;;55.80;28.45;;;77.50;2227.20;;;;;;4975327;28;20034;-62
2021/01/08 00:29:30;;;;;;;52.38;27.95;;;77.50;2227.20;;;;;;4974972;28;20093;-63
2021/01/08 00:31:56;;;;;;;53.33;28.42;;;77.60;2227.20;;;;;;4975305;28;20480;-62
2021/01/08 00:34:22;;;;;;;54.53;28.88;;;77.50;2227.20;;;;;;4975426;28;20041;-66
2021/01/08 00:36:50;;;;;;;55.17;28.52;;;77.50;2227.20;;;;;;4975444;28;20026;-59
2021/01/08 00:39:16;;;;;;;52.92;28.85;;;77.50;2227.20;;;;;;4975169;28;20041;-62
2021/01/08 00:41:42;;;;;;;54.55;29.52;;;77.40;2227.20;;;;;;4975190;28;20170;-68
2021/01/08 00:44:08;;;;;;;54.80;28.75;;;77.40;2227.20;;;;;;4975519;28;20565;-70
2021/01/08 00:46:35;;;;;;;55.60;29.45;;;77.40;2227.20;;;;;;4975196;28;20030;-64
2021/01/08 00:49:03;;;;;;;55.63;29.70;;;77.30;2227.20;;;;;;4957686;28;20049;-66
2021/01/08 00:51:28;;;;;;;57.63;30.60;;;77.30;2227.20;;;;;;4958199;28;20105;-63
2021/01/08 00:53:54;;;;;;;57.30;29.95;;;77.30;2227.20;;;;;;4974732;28;20031;-63
2021/01/08 00:56:20;;;;;;;50.85;27.42;;;77.30;2227.20;;;;;;4975199;28;20066;-63
2021/01/08 00:58:46;;;;;;;55.28;28.48;;;77.30;2227.20;;;;;;4975407;28;20042;-63
2021/01/08 01:01:13;;;;;;;56.92;28.27;;;77.20;2227.20;;;;;;4974549;28;20125;-63
2021/01/08 01:03:39;;;;;;;52.30;27.40;;;77.20;2227.20;;;;;;4974512;28;20046;-62
2021/01/08 01:06:05;;;;;;;53.13;28.05;;;77.20;2227.20;;;;;;4981678;28;20472;-63
2021/01/08 01:08:31;;;;;;;51.17;27.30;;;77.30;2227.20;;;;;;4983335;28;20038;-63
2021/01/08 01:10:57;;;;;;;46.97;26.40;;;77.30;2227.20;;;;;;4982982;28;20057;-63
2021/01/08 01:13:27;;;;;;;49.22;25.67;;;77.30;2227.20;;;;;;4967481;28;20412;-63
2021/01/08 01:15:54;;;;;;;47.95;25.73;;;51.70;2227.20;;;;;;4984263;28;20110;-63
2021/01/08 01:18:20;;;;;;;47.85;26.25;;;77.30;2227.20;;;;;;4984252;28;20085;-63
2021/01/08 01:20:47;;;;;;;50.83;26.58;;;77.30;2227.20;;;;;;4982937;28;20508;-63
2021/01/08 01:23:13;;;;;;;53.40;27.30;;;77.30;2227.20;;;;;;4990998;28;20042;-63
2021/01/08 01:25:38;;;;;;;50.50;26.35;;;77.30;2227.20;;;;;;4991786;28;20094;-63
2021/01/08 01:28:04;;;;;;;49.95;26.10;;;77.30;2227.20;;;;;;4989132;28;20436;-63
2021/01/08 01:30:31;;;;;;;50.70;27.23;;;77.40;2227.20;;;;;;4989272;28;20052;-63
2021/01/08 01:32:58;;;;;;;47.95;26.35;;;77.40;2227.20;;;;;;4990547;28;20054;-63
2021/01/08 01:35:24;;;;;;;51.20;26.40;;;77.40;2227.20;;;;;;4990477;28;20026;-63
2021/01/08 01:37:51;;;;;;;47.38;25.40;;;77.30;2227.20;;;;;;4989544;28;20114;-63
2021/01/08 01:40:17;;;;;;;49.08;25.48;;;77.40;2227.20;;;;;;4993000;28;20038;-63
2021/01/08 01:42:43;;;;;;;48.47;25.25;;;77.50;2227.20;;;;;;4989281;28;20113;-63
2021/01/08 01:45:09;;;;;;;44.80;24.65;;;77.50;2227.20;;;;;;4990567;28;20034;-63
2021/01/08 01:47:35;;;;;;;44.83;24.52;;;77.60;2227.20;;;;;;4988581;28;20027;-62
2021/01/08 01:50:02;;;;;;;45.42;24.05;;;77.60;2227.20;;;;;;4994968;28;20034;-63
2021/01/08 01:52:28;;;;;;;47.05;25.10;;;77.70;2227.20;;;;;;4993732;28;20035;-63
2021/01/08 01:54:54;;;;;;;44.10;23.58;;;77.70;2227.20;;;;;;4993711;28;20025;-63
2021/01/08 01:57:20;;;;;;;43.28;23.52;;;77.70;2227.20;;;;;;4992252;28;20038;-63
2021/01/08 01:59:46;;;;;;;42.95;23.63;;;77.70;2227.20;;;;;;4996652;28;20089;-63
2021/01/08 02:02:45;;;;;;;43.75;23.25;;;77.70;2227.20;;;;;;5000399;28;20037;-63
2021/01/08 02:05:16;;;;;;;44.83;24.05;;;77.70;2227.20;;;;;;5000739;28;20018;-63
2021/01/08 02:08:02;;;;;;;45.15;24.13;;;77.70;2227.20;;;;;;4997645;28;20026;-63
2021/01/08 02:10:36;;;;;;;46.15;23.88;;;77.60;2227.20;;;;;;4997662;28;20014;-63
2021/01/08 02:13:02;;;;;;;45.50;24.60;;;77.70;2227.20;;;;;;4998586;28;20022;-62
2021/01/08 02:15:28;;;;;;;41.55;23.50;;;77.50;2227.20;;;;;;4998975;28;20022;-63
2021/01/08 02:17:55;;;;;;;43.95;24.00;;;77.60;2227.20;;;;;;4999221;28;20022;-63
2021/01/08 02:20:22;;;;;;;46.90;24.17;;;77.60;2227.20;;;;;;4998805;28;20061;-63
2021/01/08 02:22:56;;;;;;;47.58;25.02;;;77.60;2227.20;;;;;;5013998;28;20490;-63
2021/01/08 02:25:24;;;;;;;49.80;25.63;;;77.60;2227.20;;;;;;4998880;28;20068;-63
2021/01/08 02:28:04;;;;;;;46.80;25.48;;;77.60;2227.20;;;;;;4999821;28;20177;-63
2021/01/08 02:30:34;;;;;;;47.88;25.90;;;77.50;2227.20;;;;;;5000129;28;20058;-63
2021/01/08 02:33:01;;;;;;;47.70;26.50;;;77.50;2227.20;;;;;;5000169;28;20038;-63
2021/01/08 02:35:28;;;;;;;46.97;24.55;;;77.50;2227.20;;;;;;4999987;28;20018;-63
2021/01/08 02:37:56;;;;;;;47.28;26.00;;;77.50;2227.20;;;;;;4996358;28;20031;-63
2021/01/08 02:40:22;;;;;;;47.67;25.67;;;77.50;2227.20;;;;;;4979879;28;20383;-63
2021/01/08 02:42:51;;;;;;;46.65;25.58;;;77.50;2227.20;;;;;;4997089;28;20034;-63
2021/01/08 02:45:17;;;;;;;42.45;24.25;;;77.50;2227.20;;;;;;4997202;28;20021;-63
2021/01/08 02:47:43;;;;;;;51.15;26.45;;;77.60;2227.20;;;;;;4997147;28;20030;-63
2021/01/08 02:50:09;;;;;;;45.47;25.23;;;77.60;2227.20;;;;;;4996958;28;20372;-62
2021/01/08 02:52:40;;;;;;;44.90;24.73;;;77.60;2227.20;;;;;;4996641;28;20088;-63
2021/01/08 02:55:09;;;;;;;46.33;24.55;;;77.60;2227.20;;;;;;4996879;28;20602;-63
2021/01/08 02:57:35;;;;;;;43.95;24.60;;;77.60;2227.20;;;;;;4996940;28;20033;-63
2021/01/08 03:00:02;;;;;;;44.90;24.58;;;77.50;2227.20;;;;;;4996742;28;20538;-63
2021/01/08 03:02:28;;;;;;;45.97;25.52;;;77.50;2227.20;;;;;;4979144;28;20040;-63
2021/01/08 03:04:55;;;;;;;45.53;25.83;;;77.50;2227.20;;;;;;4979301;28;20030;-62
2021/01/08 03:07:21;;;;;;;50.45;26.35;;;77.50;2227.20;;;;;;4996715;28;20058;-62
2021/01/08 03:09:48;;;;;;;44.10;24.30;;;77.50;2227.20;;;;;;4996599;28;20026;-63
2021/01/08 03:12:15;;;;;;;48.15;25.33;;;77.60;2227.20;;;;;;4996793;28;20049;-63
2021/01/08 03:14:47;;;;;;;44.15;24.45;;;77.50;2227.20;;;;;;4996541;28;20467;-63
2021/01/08 03:17:14;;;;;;;46.38;26.25;;;77.60;2227.20;;;;;;4996595;28;20344;-63
2021/01/08 03:19:40;;;;;;;47.67;26.17;;;77.60;2227.20;;;;;;4996381;28;20014;-63
2021/01/08 03:22:06;;;;;;;45.38;26.20;;;77.60;2227.20;;;;;;4996451;28;20383;-62
2021/01/08 03:24:32;;;;;;;44.22;23.70;;;77.70;2227.20;;;;;;4979020;28;20035;-63
2021/01/08 03:26:58;;;;;;;46.05;24.48;;;102.40;2227.20;;;;;;4996042;28;20440;-62
2021/01/08 03:29:24;;;;;;;44.63;24.73;;;102.40;2227.20;;;;;;4996040;28;20101;-63
2021/01/08 03:31:50;;;;;;;42.45;24.38;;;102.40;2227.20;;;;;;4996158;28;20049;-63
2021/01/08 03:34:16;;;;;;;42.05;23.90;;;77.70;2227.20;;;;;;4996413;28;20101;-63
2021/01/08 03:36:41;;;;;;;43.97;23.35;;;102.40;2227.20;;;;;;4995784;28;20022;-63
2021/01/08 03:39:07;;;;;;;43.92;24.75;;;102.50;2227.20;;;;;;4984748;28;20104;-63
2021/01/08 03:41:33;;;;;;;42.10;23.73;;;102.40;2227.20;;;;;;4985106;28;20019;-63
2021/01/08 03:43:59;;;;;;;40.05;22.92;;;77.70;2227.20;;;;;;4966458;28;20529;-63
2021/01/08 03:46:25;;;;;;;40.70;23.45;;;102.40;2227.20;;;;;;4968746;28;20035;-62
2021/01/08 03:48:50;;;;;;;40.38;23.20;;;102.40;2227.20;;;;;;4983908;28;20110;-63
2021/01/08 03:51:16;;;;;;;41.30;23.02;;;102.40;2227.20;;;;;;4977558;28;20158;-63
2021/01/08 03:53:42;;;;;;;39.78;22.48;;;102.40;2227.20;;;;;;4984425;28;20015;-63
2021/01/08 03:56:08;;;;;;;42.63;22.15;;;102.40;2227.20;;;;;;4965785;28;20022;-63
2021/01/08 03:58:33;;;;;;;40.75;22.45;;;102.40;2227.20;;;;;;4976094;28;20419;-63
2021/01/08 04:00:59;;;;;;;40.90;23.92;;;102.50;2227.20;;;;;;4976217;28;20030;-63
2021/01/08 04:03:25;;;;;;;39.97;22.55;;;102.50;2227.20;;;;;;4975799;28;20039;-63
2021/01/08 04:05:50;;;;;;;39.33;21.13;;;102.50;2227.20;;;;;;4976613;28;20031;-63
2021/01/08 04:08:16;;;;;;;38.75;22.90;;;102.50;2227.20;;;;;;4976462;28;20101;-62
2021/01/08 04:10:42;;;;;;;38.97;22.20;;;102.50;2227.20;;;;;;4976246;28;20019;-63
2021/01/08 04:13:07;;;;;;;37.25;22.38;;;102.50;2227.20;;;;;;4975703;28;20030;-62
2021/01/08 04:15:33;;;;;;;41.83;22.60;;;102.40;2227.20;;;;;;4976232;28;20423;-63
2021/01/08 04:17:59;;;;;;;36.92;20.50;;;102.50;2227.20;;;;;;4976036;28;20027;-62
2021/01/08 04:20:25;;;;;;;38.10;21.45;;;102.50;2227.20;;;;;;4976000;28;20098;-62
2021/01/08 04:22:50;;;;;;;40.63;21.92;;;102.40;2227.20;;;;;;4975836;28;20046;-63
2021/01/08 04:25:16;;;;;;;36.22;20.95;;;102.40;2227.20;;;;;;4975898;28;20030;-62
2021/01/08 04:27:42;;;;;;;41.15;23.25;;;102.40;2227.20;;;;;;4975699;28;20463;-63
2021/01/08 04:30:08;;;;;;;40.05;22.40;;;102.40;2227.20;;;;;;4975232;28;20029;-63
2021/01/08 04:32:33;;;;;;;44.22;24.73;;;102.40;2227.20;;;;;;4975535;28;20062;-63
2021/01/08 04:35:00;;;;;;;40.95;22.95;;;102.50;2227.20;;;;;;4975526;28;20058;-62
2021/01/08 04:37:25;;;;;;;37.78;23.08;;;102.40;2227.20;;;;;;4958445;28;20030;-63
2021/01/08 04:39:51;;;;;;;41.35;23.33;;;102.50;2227.20;;;;;;4975759;28;20102;-63
2021/01/08 04:42:17;;;;;;;39.75;23.13;;;102.50;2227.20;;;;;;4975529;28;20069;-63
2021/01/08 04:44:43;;;;;;;37.28;21.77;;;102.40;2227.20;;;;;;4975651;28;20053;-62
2021/01/08 04:47:14;;;;;;;41.90;23.23;;;102.40;2227.20;;;;;;4975251;28;20027;-62
2021/01/08 04:49:40;;;;;;;39.85;23.08;;;102.40;2227.20;;;;;;4975150;28;20499;-63
2021/01/08 04:52:10;;;;;;;42.45;22.92;;;102.40;2227.20;;;;;;4975491;28;20058;-63
2021/01/08 04:54:37;;;;;;;45.33;24.58;;;102.40;2227.20;;;;;;4975177;28;20101;-62
2021/01/08 04:57:04;;;;;;;43.42;24.73;;;102.40;2227.20;;;;;;4975371;28;20073;-63
2021/01/08 04:59:30;;;;;;;56.35;36.70;;;102.40;2227.20;;;;;;4975082;28;20110;-62
2021/01/08 05:01:57;;;;;;;52.28;33.75;;;102.40;2227.20;;;;;;4974974;28;20121;-63
2021/01/08 05:04:22;;;;;;;43.70;25.45;;;102.40;2227.20;;;;;;4975172;28;20023;-63
2021/01/08 05:06:48;;;;;;;44.65;26.65;;;102.50;2227.20;;;;;;4975150;28;20022;-63
2021/01/08 05:09:14;;;;;;;44.03;24.75;;;102.50;2227.20;;;;;;4975347;28;20027;-62
2021/01/08 05:11:44;;;;;;;45.58;25.88;;;102.50;2227.20;;;;;;4975246;28;20054;-63
2021/01/08 05:14:09;;;;;;;46.40;25.88;;;102.50;2227.20;;;;;;4975130;28;20101;-62
2021/01/08 05:16:37;;;;;;;46.97;25.95;;;102.60;2227.20;;;;;;4974790;28;20031;-62
2021/01/08 05:19:05;;;;;;;46.25;25.40;;;102.50;2227.20;;;;;;4974660;28;20038;-62
2021/01/08 05:21:31;;;;;;;42.92;24.67;;;102.60;2227.20;;;;;;4974885;28;20384;-62
2021/01/08 05:24:02;;;;;;;43.40;25.83;;;102.50;2227.20;;;;;;4957728;28;20046;-62
2021/01/08 05:26:29;;;;;;;46.10;24.92;;;102.50;2227.20;;;;;;4975128;28;20031;-63
2021/01/08 05:28:56;;;;;;;48.70;27.10;;;102.60;2227.20;;;;;;4974968;28;20453;-63
2021/01/08 05:31:25;;;;;;;45.25;25.63;;;102.60;2227.20;;;;;;4974662;28;20393;-62
2021/01/08 05:33:52;;;;;;;49.28;27.00;;;102.60;2227.20;;;;;;4975208;28;20387;-62
2021/01/08 05:36:18;;;;;;;47.85;27.48;;;102.60;2227.20;;;;;;4975051;28;20077;-63
2021/01/08 05:38:59;;;;;;;46.60;27.15;;;102.60;2227.20;;;;;;4974838;28;20109;-62
2021/01/08 05:41:27;;;;;;;46.05;26.80;;;102.70;2227.20;;;;;;4974927;28;20039;-63
2021/01/08 05:43:54;;;;;;;50.03;27.25;;;102.70;2227.20;;;;;;4974517;28;20047;-62
2021/01/08 05:46:26;;;;;;;49.58;27.38;;;102.70;2227.20;;;;;;4974411;28;20026;-63
2021/01/08 05:48:54;;;;;;;49.67;27.30;;;102.70;2227.20;;;;;;4974619;28;20034;-62
2021/01/08 05:51:23;;;;;;;54.80;31.92;;;102.70;2227.20;;;;;;4974634;28;20030;-62
2021/01/08 05:53:51;;;;;;;60.15;33.17;;;102.70;2227.20;;;;;;4974708;28;20484;-63
2021/01/08 05:56:18;;;;;;;60.28;32.55;;;102.70;2227.20;;;;;;4974815;28;20074;-63
2021/01/08 05:58:45;;;;;;;49.08;28.02;;;102.70;2227.20;;;;;;4974765;28;20444;-62
2021/01/08 06:01:12;;;;;;;54.42;29.17;;;102.70;2227.20;;;;;;4974971;28;20417;-63
2021/01/08 06:03:39;;;;;;;66.28;36.70;;;102.60;2227.20;;;;;;4974679;28;20039;-62
2021/01/08 06:06:05;;;;;;;50.22;28.88;;;102.70;2227.20;;;;;;4977090;28;20029;-62
2021/01/08 06:08:32;;;;;;;136.38;63.00;;;102.70;2227.20;;;;;;4993357;28;20117;-62
2021/01/08 06:11:00;;;;;;;75.97;40.10;;;102.70;2227.20;;;;;;4994024;28;20379;-63
2021/01/08 06:13:34;;;;;;;78.22;40.67;;;102.70;2227.20;;;;;;4997791;28;20038;-63
2021/01/08 06:16:02;;;;;;;56.40;31.33;;;102.80;2227.20;;;;;;4996419;28;20149;-62
2021/01/08 06:18:28;;;;;;;57.03;30.73;;;102.70;2227.20;;;;;;4991746;28;20545;-63
2021/01/08 06:21:05;;;;;;;63.40;34.30;;;102.70;2227.20;;;;;;4986491;28;20098;-62
2021/01/08 06:23:38;;;;;;;58.47;31.70;;;102.70;2227.20;;;;;;4986080;28;20069;-63
2021/01/08 06:26:15;;;;;;;59.10;33.75;;;102.70;2227.20;;;;;;4986933;28;20021;-63
2021/01/08 06:28:44;;;;;;;59.75;33.15;;;102.70;2227.20;;;;;;4960231;28;20077;-63
2021/01/08 06:31:23;;;;;;;90.47;45.53;;;102.60;2227.20;;;;;;4985783;28;20129;-63
2021/01/08 06:33:59;;;;;;;93.20;47.88;;;102.70;2227.20;;;;;;4997114;28;20023;-63
2021/01/08 06:36:33;;;;;;;149.18;74.15;;;102.60;2227.20;;;;;;4988861;28;20057;-63
2021/01/08 06:39:11;;;;;;;94.13;49.42;;;102.50;2227.20;;;;;;4977704;28;20022;-63
2021/01/08 06:41:39;;;;;;;61.30;33.90;;;102.50;2227.20;;;;;;4977723;28;20030;-63
2021/01/08 06:44:06;;;;;;;55.55;32.40;;;102.40;2227.20;;;;;;4977307;28;20039;-62
2021/01/08 06:46:39;;;;;;;56.65;31.23;;;102.40;2227.20;;;;;;4977806;28;20468;-62
2021/01/08 06:49:07;;;;;;;54.58;30.50;;;102.50;2227.20;;;;;;4977619;28;20105;-62
2021/01/08 06:51:38;;;;;;;63.90;34.72;;;102.50;2227.20;;;;;;4977506;28;20066;-63
2021/01/08 06:54:08;;;;;;;57.40;32.58;;;102.60;2227.20;;;;;;4989176;28;20034;-63
2021/01/08 06:56:39;;;;;;;52.70;30.33;;;102.60;2227.20;;;;;;4996497;28;20029;-63
2021/01/08 06:59:07;;;;;;;52.80;31.00;;;102.70;2227.20;;;;;;4996807;28;20033;-62
2021/01/08 07:01:37;;;;;;;57.58;33.53;;;102.70;2227.20;;;;;;4979446;28;20431;-63
2021/01/08 07:04:05;;;;;;;60.15;32.67;;;102.70;2227.20;;;;;;4996454;28;20088;-63
2021/01/08 07:06:35;;;;;;;61.92;34.95;;;102.60;2227.20;;;;;;4996699;28;20112;-63
2021/01/08 07:09:02;;;;;;;61.33;34.20;;;102.60;2227.20;;;;;;4996854;28;20048;-62
2021/01/08 07:11:29;;;;;;;64.60;35.78;;;102.60;2227.20;;;;;;4996447;28;20105;-62
2021/01/08 07:14:14;;;;;;;83.22;45.33;;;102.60;2227.20;;;;;;4996406;28;20439;-62
2021/01/08 07:16:49;;;;;;;77.13;42.13;;;102.60;2227.20;;;;;;4996357;28;20490;-63
2021/01/08 07:19:18;;;;;;;75.05;41.65;;;102.60;2227.20;;;;;;4996292;28;20494;-62
2021/01/08 07:21:48;;;;;;;58.03;33.35;;;102.60;2227.20;;;;;;4995799;28;20125;-62
2021/01/08 07:24:17;;;;;;;63.03;36.60;;;102.60;2227.20;;;;;;4995882;28;20038;-63
2021/01/08 07:26:44;;;;;;;68.80;39.55;;;102.60;2227.20;;;;;;4991837;28;20093;-64
2021/01/08 07:29:10;;;;;;;65.97;38.47;;;102.60;2227.20;;;;;;4995669;28;20034;-62
2021/01/08 07:31:38;;;;;;;73.28;43.17;;;102.70;2227.20;;;;;;4981412;28;20074;-63
2021/01/08 07:34:06;;;;;;;73.25;43.22;;;102.70;2227.20;;;;;;4976251;28;20035;-63
2021/01/08 07:36:33;;;;;;;61.97;36.83;;;102.70;2227.20;;;;;;4976658;28;20030;-62
2021/01/08 07:38:59;;;;;;;67.25;40.30;;;102.70;2227.20;;;;;;4976545;28;20030;-62
2021/01/08 07:41:32;;;;;;;67.43;38.53;;;102.80;2227.20;;;;;;4976185;28;20035;-63
2021/01/08 07:43:58;;;;;;;62.25;36.78;;;102.60;2227.20;;;;;;4976231;28;20031;-63
2021/01/08 07:46:28;;;;;;;63.28;36.95;;;102.70;2227.20;;;;;;4976575;28;20023;-64
2021/01/08 07:48:57;;;;;;;69.18;40.13;;;102.80;2227.20;;;;;;4976237;28;20030;-65
2021/01/08 07:51:23;;;;;;;83.20;45.92;;;102.70;2227.20;;;;;;4976142;28;20070;-64
2021/01/08 07:53:50;;;;;;;85.05;44.03;;;102.70;2227.20;;;;;;4976519;28;20113;-63
2021/01/08 07:56:23;;;;;;;74.13;39.72;;;102.80;2227.20;;;;;;4973055;28;20027;-63
2021/01/08 07:58:54;;;;;;;63.40;36.55;;;102.70;2227.20;;;;;;4966202;28;20023;-63
2021/01/08 08:01:20;;;;;;;63.22;36.72;;;102.70;2227.20;;;;;;4965627;28;20106;-62
2021/01/08 08:04:02;;;;;;;64.80;37.55;;;102.70;2227.20;;;;;;4963986;28;20147;-62
2021/01/08 08:06:32;;;;;;;62.10;37.15;;;102.70;2227.20;;;;;;4966183;28;20022;-62
2021/01/08 08:09:03;;;;;;;60.63;35.22;;;102.80;2227.20;;;;;;4965418;28;20028;-65
2021/01/08 08:11:32;;;;;;;65.78;37.22;;;102.90;2227.20;;;;;;4965983;28;20023;-67
2021/01/08 08:13:59;;;;;;;63.55;35.55;;;103.00;2227.20;;;;;;4965760;28;20468;-66
2021/01/08 08:16:32;;;;;;;62.65;36.05;;;103.00;2227.20;;;;;;4965293;28;20046;-64
2021/01/08 08:18:58;;;;;;;58.35;34.72;;;103.10;2227.20;;;;;;4947951;28;20050;-64
2021/01/08 08:21:24;;;;;;;71.18;40.45;;;103.20;2227.20;;;;;;4963074;28;20026;-64
2021/01/08 08:23:56;;;;;;;56.80;34.10;;;103.30;2227.20;;;;;;4964678;28;20035;-66
2021/01/08 08:26:23;;;;;;;59.95;33.95;;;103.20;2227.20;;;;;;4965512;28;20023;-66
2021/01/08 08:29:04;;;;;;;60.78;36.90;;;128.00;2252.80;;;;;;4965266;28;20027;-67
2021/01/08 08:31:33;;;;;;;55.50;31.50;;;128.10;2252.80;;;;;;4964655;28;20035;-63
2021/01/08 08:34:00;;;;;;;48.30;28.27;;;128.00;2252.80;;;;;;4967378;28;20122;-68
2021/01/08 08:36:27;;;;;;;124.18;62.38;;;103.30;2227.20;;;;;;4968797;28;20019;-67
2021/01/08 08:39:09;;;;;;;112.82;55.50;;;128.00;2252.80;;;;;;4969317;28;20026;-68
2021/01/08 08:41:37;;;;;;;60.95;34.47;;;128.10;2252.80;;;;;;4950673;28;20027;-64
2021/01/08 08:44:04;;;;;;;68.30;42.63;;;128.20;2252.80;;;;;;4952690;28;20105;-68
2021/01/08 08:46:59;;;;;;;54.03;32.60;;;128.20;2252.80;;;;;;4969436;28;20395;-67
2021/01/08 08:49:36;;;;;;;45.35;26.83;;;128.20;2252.80;;;;;;4916696;29;20032;-67
2021/01/08 08:52:02;;;;;;;41.55;24.33;;;128.30;2252.80;;;;;;4900276;29;20036;-68
2021/01/08 08:54:28;;;;;;;43.42;25.98;;;128.30;2252.80;;;;;;4913588;29;20036;-65
2021/01/08 08:56:57;;;;;;;43.35;27.25;;;128.40;2252.80;;;;;;4915115;29;20497;-67
2021/01/08 08:59:39;;;;;;;40.63;23.17;;;128.30;2252.80;;;;;;4920567;29;20123;-65
2021/01/08 09:02:29;;;;;;;42.20;27.00;;;128.40;2252.80;;;;;;4917063;29;20447;-66
2021/01/08 09:05:00;;;;;;;41.83;25.15;;;128.50;2252.80;;;;;;4917630;29;20483;-65
2021/01/08 09:07:34;;;;;;;45.22;26.98;;;128.50;2252.80;;;;;;4917774;29;20458;-69
2021/01/08 09:10:13;;;;;;;38.67;24.65;;;128.70;2252.80;;;;;;4918377;29;20153;-66
2021/01/08 09:12:49;;;;;;;34.83;21.17;;;128.40;2252.80;;;;;;4906295;29;20028;-69
2021/01/08 09:15:26;;;;;;;34.72;21.92;;;128.40;2252.80;;;;;;4924484;29;20453;-67
2021/01/08 09:18:30;;;;;;;31.65;19.92;;;128.40;2252.80;;;;;;4920793;29;20028;-68
2021/01/08 09:21:16;;;;;;;33.40;21.02;;;128.40;2252.80;;;;;;4923139;29;20122;-67
2021/01/08 09:23:46;;;;;;;31.08;19.05;;;128.40;2252.80;;;;;;4922771;29;20036;-67
2021/01/08 09:26:14;;;;;;;58.15;26.95;;;128.30;2252.80;;;;;;4951004;28;20093;-68
2021/01/08 09:28:53;;;;;;;88.97;39.53;;;128.40;2252.80;;;;;;4966332;28;20051;-70
2021/01/08 09:31:39;;;;;;;48.70;29.80;;;128.30;2252.80;;;;;;4975915;28;20050;-65
2021/01/08 09:34:06;;;;;;;32.30;21.20;;;128.40;2252.80;;;;;;4983762;28;20037;-70
2021/01/08 09:36:33;;;;;;;31.95;21.25;;;128.50;2252.80;;;;;;4984129;28;20040;-69
2021/01/08 09:39:01;;;;;;;54.10;28.10;;;128.40;2252.80;;;;;;4990371;28;20033;-70
2021/01/08 09:41:28;;;;;;;153.88;69.90;;;128.40;2252.80;;;;;;4985270;28;20010;-68
2021/01/08 09:44:01;;;;;;;93.80;46.75;;;128.40;2252.80;;;;;;4982160;28;20034;-69
2021/01/08 09:46:27;;;;;;;118.75;54.25;;;128.50;2252.80;;;;;;4984658;28;20030;-69
2021/01/08 09:48:54;;;;;;;45.67;25.77;;;128.60;2252.80;;;;;;4987922;28;20468;-70
2021/01/08 09:51:20;;;;;;;41.80;24.70;;;128.60;2252.80;;;;;;4986258;28;20105;-70
2021/01/08 09:53:54;;;;;;;80.70;41.67;;;128.60;2252.80;;;;;;4987959;28;20044;-67
2021/01/08 09:56:20;;;;;;;85.10;41.58;;;128.60;2252.80;;;;;;4987967;28;20042;-68
2021/01/08 09:58:46;;;;;;;35.25;21.30;;;128.70;2252.80;;;;;;4985730;28;20031;-63
2021/01/08 10:01:13;;;;;;;50.30;32.53;;;128.70;2252.80;;;;;;4993311;28;20380;-65
2021/01/08 10:03:41;;;;;;;27.13;16.67;;;153.60;2252.80;;;;;;4970633;28;20065;-63
2021/01/08 10:06:11;;;;;;;26.95;16.13;;;128.90;2252.80;;;;;;4986991;28;20018;-66
2021/01/08 10:08:38;;;;;;;28.42;16.83;;;128.80;2252.80;;;;;;4990724;28;20029;-66
2021/01/08 10:11:05;;;;;;;28.95;18.13;;;128.90;2252.80;;;;;;4992733;28;20019;-67
2021/01/08 10:13:32;;;;;;;36.45;20.98;;;153.70;2252.80;;;;;;4976659;28;20066;-68
2021/01/08 10:16:05;;;;;;;39.05;22.48;;;153.60;2252.80;;;;;;4997334;28;20031;-67
2021/01/08 10:18:36;;;;;;;63.05;35.60;;;153.60;2252.80;;;;;;4997004;28;20033;-68
2021/01/08 10:21:08;;;;;;;89.00;51.30;;;128.90;2252.80;;;;;;4997280;28;20027;-63
2021/01/08 10:23:45;;;;;;;38.33;22.50;;;128.80;2252.80;;;;;;4997376;28;20042;-69
2021/01/08 10:26:18;;;;;;;24.77;16.48;;;128.80;2252.80;;;;;;4997343;28;20122;-64
2021/01/08 10:28:50;;;;;;;29.05;17.60;;;128.70;2252.80;;;;;;4997350;28;20542;-64
2021/01/08 10:31:17;;;;;;;27.40;17.08;;;128.70;2252.80;;;;;;4984982;28;20584;-66
2021/01/08 10:33:43;;;;;;;27.00;17.23;;;128.70;2252.80;;;;;;4977797;28;20472;-67
2021/01/08 10:36:10;;;;;;;26.38;16.05;;;128.70;2252.80;;;;;;4978197;28;20035;-67
2021/01/08 10:38:36;;;;;;;29.52;17.65;;;128.70;2252.80;;;;;;4976564;28;20022;-67
2021/01/08 10:41:02;;;;;;;25.55;17.20;;;128.70;2252.80;;;;;;4977765;28;20029;-67
2021/01/08 10:43:31;;;;;;;28.67;18.42;;;128.70;2252.80;;;;;;4977442;28;20031;-69
2021/01/08 10:45:57;;;;;;;30.95;20.85;;;128.70;2252.80;;;;;;4973374;28;20053;-64
2021/01/08 10:48:23;;;;;;;36.08;21.95;;;128.60;2252.80;;;;;;4977295;28;20023;-63
2021/01/08 10:50:48;;;;;;;29.35;18.15;;;128.50;2252.80;;;;;;4977144;28;20030;-65
2021/01/08 10:53:14;;;;;;;34.03;23.33;;;128.60;2252.80;;;;;;4976697;28;20034;-68
2021/01/08 10:55:40;;;;;;;32.47;20.88;;;128.60;2252.80;;;;;;4976659;28;20023;-63
2021/01/08 10:58:06;;;;;;;26.63;17.42;;;128.70;2252.80;;;;;;4975731;28;20031;-63
2021/01/08 11:00:31;;;;;;;26.48;17.08;;;128.70;2252.80;;;;;;4976561;28;20151;-64
2021/01/08 11:02:57;;;;;;;31.58;18.48;;;128.80;2252.80;;;;;;4975945;28;20506;-65
2021/01/08 11:05:23;;;;;;;41.47;23.00;;;128.80;2252.80;;;;;;4976720;28;20019;-63
2021/01/08 11:07:48;;;;;;;35.63;21.75;;;128.90;2252.80;;;;;;4975747;28;20027;-64
2021/01/08 11:10:15;;;;;;;33.17;20.88;;;153.60;2252.80;;;;;;4975967;28;20379;-64
2021/01/08 11:12:41;;;;;;;35.85;20.23;;;153.60;2252.80;;;;;;4975423;28;20031;-63
2021/01/08 11:15:08;;;;;;;28.30;17.10;;;153.60;2252.80;;;;;;4975787;28;20037;-63
2021/01/08 11:17:34;;;;;;;30.15;17.83;;;128.80;2252.80;;;;;;4976578;28;20018;-63
2021/01/08 11:20:00;;;;;;;30.90;18.27;;;128.70;2252.80;;;;;;4976248;28;20053;-63
2021/01/08 11:22:26;;;;;;;25.08;15.40;;;128.70;2252.80;;;;;;4976367;28;20093;-63
2021/01/08 11:24:52;;;;;;;27.30;17.02;;;128.60;2252.80;;;;;;4976641;28;20030;-64
2021/01/08 11:27:18;;;;;;;32.47;18.65;;;128.70;2252.80;;;;;;4975504;28;20476;-63
2021/01/08 11:29:44;;;;;;;39.15;22.92;;;128.70;2252.80;;;;;;4975941;28;20538;-63
2021/01/08 11:32:10;;;;;;;46.70;27.10;;;128.60;2252.80;;;;;;4994643;28;20129;-63
2021/01/08 11:34:39;;;;;;;37.85;22.67;;;128.70;2252.80;;;;;;4995518;28;20029;-63
2021/01/08 11:37:06;;;;;;;46.15;29.27;;;128.60;2252.80;;;;;;4995894;28;20030;-63
2021/01/08 11:39:32;;;;;;;47.17;32.03;;;128.70;2252.80;;;;;;4995772;28;20034;-62
2021/01/08 11:41:58;;;;;;;41.85;26.27;;;128.80;2252.80;;;;;;4995502;28;20046;-63
2021/01/08 11:44:24;;;;;;;45.33;28.65;;;128.80;2252.80;;;;;;4995367;28;20121;-63
2021/01/08 11:46:51;;;;;;;45.00;29.20;;;128.80;2252.80;;;;;;4994172;28;20038;-64
2021/01/08 11:49:19;;;;;;;54.55;33.72;;;128.90;2252.80;;;;;;4995310;28;20487;-63
2021/01/08 11:51:46;;;;;;;51.38;32.80;;;128.90;2252.80;;;;;;4995553;28;20479;-62
2021/01/08 11:54:12;;;;;;;57.85;35.95;;;153.60;2252.80;;;;;;4994523;28;20022;-62
2021/01/08 11:56:38;;;;;;;79.13;46.08;;;153.70;2252.80;;;;;;4992763;28;20061;-62
2021/01/08 11:59:04;;;;;;;59.33;36.47;;;153.80;2252.80;;;;;;4990819;28;20109;-61
2021/01/08 12:01:30;;;;;;;50.28;31.98;;;153.70;2252.80;;;;;;4990841;28;20400;-64
2021/01/08 12:03:57;;;;;;;89.93;54.10;;;153.70;2252.80;;;;;;4993711;28;20034;-62
2021/01/08 12:06:31;;;;;;;60.75;37.78;;;153.70;2252.80;;;;;;4993752;28;20446;-62